sensor_id;sensor_type;location;lat;lon;timestamp;P1;durP1;ratioP1;P2;durP2;ratioP2
66521;SDS011;53349;53.538;8.584;2022-11-20T00:01:37;4.00;;;1.40;;
66521;SDS011;53349;53.538;8.584;2022-11-20T00:04:05;4.97;;;1.30;;
66521;SDS011;53349;53.538;8.584;2022-11-20T00:06:31;3.20;;;1.33;;
66521;SDS011;53349;53.538;8.584;2022-11-20T00:08:57;4.20;;;1.50;;
66521;SDS011;53349;53.538;8.584;2022-11-20T00:11:25;5.30;;;1.50;;
66521;SDS011;53349;53.538;8.584;2022-11-20T00:13:52;5.05;;;1.60;;
66521;SDS011;53349;53.538;8.584;2022-11-20T00:16:20;5.97;;;2.00;;
66521;SDS011;53349;53.538;8.584;2022-11-20T00:18:47;6.80;;;2.83;;
66521;SDS011;53349;53.538;8.584;2022-11-20T00:21:17;9.57;;;2.88;;
66521;SDS011;53349;53.538;8.584;2022-11-20T00:23:44;8.88;;;2.63;;
66521;SDS011;53349;53.538;8.584;2022-11-20T00:26:11;6.67;;;2.50;;
66521;SDS011;53349;53.538;8.584;2022-11-20T00:28:39;6.35;;;2.40;;
66521;SDS011;53349;53.538;8.584;2022-11-20T00:31:06;8.40;;;2.30;;
66521;SDS011;53349;53.538;8.584;2022-11-20T00:33:33;5.70;;;1.97;;
66521;SDS011;53349;53.538;8.584;2022-11-20T00:36:02;4.47;;;1.60;;
66521;SDS011;53349;53.538;8.584;2022-11-20T00:38:32;6.03;;;1.88;;
66521;SDS011;53349;53.538;8.584;2022-11-20T00:40:59;5.65;;;2.20;;
66521;SDS011;53349;53.538;8.584;2022-11-20T00:43:25;5.60;;;2.33;;
66521;SDS011;53349;53.538;8.584;2022-11-20T00:45:56;5.22;;;2.00;;
66521;SDS011;53349;53.538;8.584;2022-11-20T00:48:22;5.03;;;2.08;;
66521;SDS011;53349;53.538;8.584;2022-11-20T00:50:49;8.47;;;2.20;;
66521;SDS011;53349;53.538;8.584;2022-11-20T00:53:16;6.00;;;2.08;;
66521;SDS011;53349;53.538;8.584;2022-11-20T00:55:41;5.90;;;2.03;;
66521;SDS011;53349;53.538;8.584;2022-11-20T00:58:06;6.13;;;2.13;;
66521;SDS011;53349;53.538;8.584;2022-11-20T01:00:31;6.13;;;2.57;;
66521;SDS011;53349;53.538;8.584;2022-11-20T01:02:57;6.10;;;2.50;;
66521;SDS011;53349;53.538;8.584;2022-11-20T01:05:22;5.73;;;2.90;;
66521;SDS011;53349;53.538;8.584;2022-11-20T01:07:47;6.20;;;2.17;;
66521;SDS011;53349;53.538;8.584;2022-11-20T01:10:13;5.77;;;2.30;;
66521;SDS011;53349;53.538;8.584;2022-11-20T01:12:38;4.23;;;2.00;;
66521;SDS011;53349;53.538;8.584;2022-11-20T01:15:04;7.03;;;2.05;;
66521;SDS011;53349;53.538;8.584;2022-11-20T01:17:30;6.43;;;2.10;;
66521;SDS011;53349;53.538;8.584;2022-11-20T01:19:56;5.43;;;1.80;;
66521;SDS011;53349;53.538;8.584;2022-11-20T01:22:21;4.90;;;1.90;;
66521;SDS011;53349;53.538;8.584;2022-11-20T01:24:47;4.30;;;2.00;;
66521;SDS011;53349;53.538;8.584;2022-11-20T01:27:12;6.00;;;1.80;;
66521;SDS011;53349;53.538;8.584;2022-11-20T01:29:38;5.40;;;1.83;;
66521;SDS011;53349;53.538;8.584;2022-11-20T01:32:03;4.83;;;2.23;;
66521;SDS011;53349;53.538;8.584;2022-11-20T01:34:31;5.38;;;1.83;;
66521;SDS011;53349;53.538;8.584;2022-11-20T01:36:57;4.28;;;1.92;;
66521;SDS011;53349;53.538;8.584;2022-11-20T01:39:23;5.63;;;2.27;;
66521;SDS011;53349;53.538;8.584;2022-11-20T01:41:50;4.55;;;1.85;;
66521;SDS011;53349;53.538;8.584;2022-11-20T01:47:17;4.53;;;2.10;;
66521;SDS011;53349;53.538;8.584;2022-11-20T01:49:50;4.93;;;2.33;;
66521;SDS011;53349;53.538;8.584;2022-11-20T01:52:22;7.07;;;2.13;;
66521;SDS011;53349;53.538;8.584;2022-11-20T01:55:02;5.10;;;2.00;;
66521;SDS011;53349;53.538;8.584;2022-11-20T01:57:31;6.97;;;2.20;;
66521;SDS011;53349;53.538;8.584;2022-11-20T02:00:02;4.97;;;1.95;;
66521;SDS011;53349;53.538;8.584;2022-11-20T02:02:32;4.93;;;2.10;;
66521;SDS011;53349;53.538;8.584;2022-11-20T02:05:00;4.43;;;2.10;;
66521;SDS011;53349;53.538;8.584;2022-11-20T02:07:34;4.93;;;2.10;;
66521;SDS011;53349;53.538;8.584;2022-11-20T02:10:00;5.82;;;2.40;;
66521;SDS011;53349;53.538;8.584;2022-11-20T02:12:26;5.77;;;2.70;;
66521;SDS011;53349;53.538;8.584;2022-11-20T02:15:10;6.75;;;2.25;;
66521;SDS011;53349;53.538;8.584;2022-11-20T02:17:35;5.03;;;2.30;;
66521;SDS011;53349;53.538;8.584;2022-11-20T02:20:04;5.43;;;2.00;;
66521;SDS011;53349;53.538;8.584;2022-11-20T02:22:31;5.45;;;2.42;;
66521;SDS011;53349;53.538;8.584;2022-11-20T02:25:06;5.53;;;2.30;;
66521;SDS011;53349;53.538;8.584;2022-11-20T02:27:33;6.15;;;2.35;;
66521;SDS011;53349;53.538;8.584;2022-11-20T02:30:05;5.20;;;2.30;;
66521;SDS011;53349;53.538;8.584;2022-11-20T02:32:34;5.40;;;2.25;;
66521;SDS011;53349;53.538;8.584;2022-11-20T02:35:07;6.28;;;2.20;;
66521;SDS011;53349;53.538;8.584;2022-11-20T02:37:34;8.23;;;2.57;;
66521;SDS011;53349;53.538;8.584;2022-11-20T02:40:03;5.18;;;2.28;;
66521;SDS011;53349;53.538;8.584;2022-11-20T02:42:29;6.45;;;1.95;;
66521;SDS011;53349;53.538;8.584;2022-11-20T02:44:54;4.63;;;1.83;;
66521;SDS011;53349;53.538;8.584;2022-11-20T02:47:20;7.03;;;2.30;;
66521;SDS011;53349;53.538;8.584;2022-11-20T02:49:45;6.53;;;2.20;;
66521;SDS011;53349;53.538;8.584;2022-11-20T02:52:10;4.70;;;1.90;;
66521;SDS011;53349;53.538;8.584;2022-11-20T02:54:36;5.87;;;1.90;;
66521;SDS011;53349;53.538;8.584;2022-11-20T02:57:01;4.95;;;2.20;;
66521;SDS011;53349;53.538;8.584;2022-11-20T02:59:26;4.00;;;2.00;;
66521;SDS011;53349;53.538;8.584;2022-11-20T03:01:52;5.33;;;1.90;;
66521;SDS011;53349;53.538;8.584;2022-11-20T03:04:17;5.37;;;2.13;;
66521;SDS011;53349;53.538;8.584;2022-11-20T03:06:43;6.17;;;2.03;;
66521;SDS011;53349;53.538;8.584;2022-11-20T03:09:08;7.87;;;3.00;;
66521;SDS011;53349;53.538;8.584;2022-11-20T03:11:34;7.78;;;2.78;;
66521;SDS011;53349;53.538;8.584;2022-11-20T03:14:03;8.20;;;3.33;;
66521;SDS011;53349;53.538;8.584;2022-11-20T03:16:30;10.20;;;3.47;;
66521;SDS011;53349;53.538;8.584;2022-11-20T03:18:56;9.32;;;4.18;;
66521;SDS011;53349;53.538;8.584;2022-11-20T03:21:22;7.30;;;3.30;;
66521;SDS011;53349;53.538;8.584;2022-11-20T03:23:47;7.07;;;3.37;;
66521;SDS011;53349;53.538;8.584;2022-11-20T03:26:19;7.22;;;3.42;;
66521;SDS011;53349;53.538;8.584;2022-11-20T03:28:47;7.32;;;3.15;;
66521;SDS011;53349;53.538;8.584;2022-11-20T03:31:15;6.40;;;2.63;;
66521;SDS011;53349;53.538;8.584;2022-11-20T03:33:41;5.95;;;2.40;;
66521;SDS011;53349;53.538;8.584;2022-11-20T03:36:11;5.80;;;2.30;;
66521;SDS011;53349;53.538;8.584;2022-11-20T03:38:38;8.10;;;2.50;;
66521;SDS011;53349;53.538;8.584;2022-11-20T03:41:07;5.43;;;2.22;;
66521;SDS011;53349;53.538;8.584;2022-11-20T03:43:34;5.70;;;2.50;;
66521;SDS011;53349;53.538;8.584;2022-11-20T03:46:00;5.23;;;2.17;;
66521;SDS011;53349;53.538;8.584;2022-11-20T03:48:26;5.70;;;2.55;;
66521;SDS011;53349;53.538;8.584;2022-11-20T03:50:52;8.30;;;2.73;;
66521;SDS011;53349;53.538;8.584;2022-11-20T03:53:30;5.68;;;2.10;;
66521;SDS011;53349;53.538;8.584;2022-11-20T03:55:56;5.93;;;2.50;;
66521;SDS011;53349;53.538;8.584;2022-11-20T03:58:21;6.77;;;2.80;;
66521;SDS011;53349;53.538;8.584;2022-11-20T04:00:46;7.57;;;3.20;;
66521;SDS011;53349;53.538;8.584;2022-11-20T04:03:12;7.13;;;3.42;;
66521;SDS011;53349;53.538;8.584;2022-11-20T04:05:37;10.17;;;4.00;;
66521;SDS011;53349;53.538;8.584;2022-11-20T04:08:02;8.53;;;3.97;;
66521;SDS011;53349;53.538;8.584;2022-11-20T04:10:28;9.13;;;4.00;;
66521;SDS011;53349;53.538;8.584;2022-11-20T04:12:53;8.40;;;3.50;;
66521;SDS011;53349;53.538;8.584;2022-11-20T04:15:19;6.50;;;2.83;;
66521;SDS011;53349;53.538;8.584;2022-11-20T04:17:44;5.90;;;2.40;;
66521;SDS011;53349;53.538;8.584;2022-11-20T04:20:10;4.23;;;2.00;;
66521;SDS011;53349;53.538;8.584;2022-11-20T04:22:35;4.53;;;2.10;;
66521;SDS011;53349;53.538;8.584;2022-11-20T04:25:00;5.57;;;2.30;;
66521;SDS011;53349;53.538;8.584;2022-11-20T04:27:26;5.43;;;2.53;;
66521;SDS011;53349;53.538;8.584;2022-11-20T04:29:51;4.70;;;2.20;;
66521;SDS011;53349;53.538;8.584;2022-11-20T04:32:16;5.95;;;2.00;;
66521;SDS011;53349;53.538;8.584;2022-11-20T04:34:41;4.87;;;1.90;;
66521;SDS011;53349;53.538;8.584;2022-11-20T04:37:07;6.00;;;2.00;;
66521;SDS011;53349;53.538;8.584;2022-11-20T04:39:32;3.07;;;1.30;;
66521;SDS011;53349;53.538;8.584;2022-11-20T04:41:57;4.47;;;1.90;;
66521;SDS011;53349;53.538;8.584;2022-11-20T04:44:41;5.00;;;1.60;;
66521;SDS011;53349;53.538;8.584;2022-11-20T04:47:07;4.87;;;1.80;;
66521;SDS011;53349;53.538;8.584;2022-11-20T04:49:32;3.80;;;1.30;;
66521;SDS011;53349;53.538;8.584;2022-11-20T04:51:58;5.72;;;1.80;;
66521;SDS011;53349;53.538;8.584;2022-11-20T04:54:24;3.47;;;1.40;;
66521;SDS011;53349;53.538;8.584;2022-11-20T04:56:49;6.63;;;1.53;;
66521;SDS011;53349;53.538;8.584;2022-11-20T04:59:15;4.63;;;1.70;;
66521;SDS011;53349;53.538;8.584;2022-11-20T05:01:40;3.97;;;1.80;;
66521;SDS011;53349;53.538;8.584;2022-11-20T05:04:06;6.23;;;2.03;;
66521;SDS011;53349;53.538;8.584;2022-11-20T05:06:31;4.53;;;1.98;;
66521;SDS011;53349;53.538;8.584;2022-11-20T05:08:57;5.27;;;1.80;;
66521;SDS011;53349;53.538;8.584;2022-11-20T05:11:23;4.30;;;2.00;;
66521;SDS011;53349;53.538;8.584;2022-11-20T05:13:49;4.27;;;1.80;;
66521;SDS011;53349;53.538;8.584;2022-11-20T05:16:16;6.22;;;2.10;;
66521;SDS011;53349;53.538;8.584;2022-11-20T05:18:43;4.00;;;1.63;;
66521;SDS011;53349;53.538;8.584;2022-11-20T05:21:10;4.35;;;1.70;;
66521;SDS011;53349;53.538;8.584;2022-11-20T05:23:36;4.70;;;1.70;;
66521;SDS011;53349;53.538;8.584;2022-11-20T05:26:02;4.10;;;1.60;;
66521;SDS011;53349;53.538;8.584;2022-11-20T05:28:28;4.73;;;2.00;;
66521;SDS011;53349;53.538;8.584;2022-11-20T05:30:55;4.10;;;1.67;;
66521;SDS011;53349;53.538;8.584;2022-11-20T05:33:20;4.37;;;1.80;;
66521;SDS011;53349;53.538;8.584;2022-11-20T05:35:46;5.95;;;2.05;;
66521;SDS011;53349;53.538;8.584;2022-11-20T05:38:13;5.15;;;1.70;;
66521;SDS011;53349;53.538;8.584;2022-11-20T05:40:38;4.67;;;1.80;;
66521;SDS011;53349;53.538;8.584;2022-11-20T05:43:03;3.80;;;1.63;;
66521;SDS011;53349;53.538;8.584;2022-11-20T05:45:29;5.57;;;1.90;;
66521;SDS011;53349;53.538;8.584;2022-11-20T05:47:57;5.10;;;1.80;;
66521;SDS011;53349;53.538;8.584;2022-11-20T05:50:25;4.25;;;1.63;;
66521;SDS011;53349;53.538;8.584;2022-11-20T05:52:50;4.10;;;1.80;;
66521;SDS011;53349;53.538;8.584;2022-11-20T05:55:15;4.25;;;1.70;;
66521;SDS011;53349;53.538;8.584;2022-11-20T05:57:41;5.10;;;1.70;;
66521;SDS011;53349;53.538;8.584;2022-11-20T06:00:06;4.73;;;1.90;;
66521;SDS011;53349;53.538;8.584;2022-11-20T06:02:34;4.97;;;1.90;;
66521;SDS011;53349;53.538;8.584;2022-11-20T06:04:59;3.90;;;1.63;;
66521;SDS011;53349;53.538;8.584;2022-11-20T06:07:25;4.80;;;1.67;;
66521;SDS011;53349;53.538;8.584;2022-11-20T06:09:50;4.07;;;1.40;;
66521;SDS011;53349;53.538;8.584;2022-11-20T06:12:16;3.27;;;1.37;;
66521;SDS011;53349;53.538;8.584;2022-11-20T06:14:41;4.90;;;1.40;;
66521;SDS011;53349;53.538;8.584;2022-11-20T06:17:06;3.87;;;1.50;;
66521;SDS011;53349;53.538;8.584;2022-11-20T06:19:31;4.17;;;1.53;;
66521;SDS011;53349;53.538;8.584;2022-11-20T06:21:57;5.40;;;1.60;;
66521;SDS011;53349;53.538;8.584;2022-11-20T06:24:22;3.83;;;1.30;;
66521;SDS011;53349;53.538;8.584;2022-11-20T06:26:50;4.53;;;1.20;;
66521;SDS011;53349;53.538;8.584;2022-11-20T06:29:15;4.67;;;1.10;;
66521;SDS011;53349;53.538;8.584;2022-11-20T06:31:41;3.00;;;1.10;;
66521;SDS011;53349;53.538;8.584;2022-11-20T06:34:07;2.73;;;1.00;;
66521;SDS011;53349;53.538;8.584;2022-11-20T06:36:33;3.55;;;1.10;;
66521;SDS011;53349;53.538;8.584;2022-11-20T06:38:59;3.22;;;1.00;;
66521;SDS011;53349;53.538;8.584;2022-11-20T06:41:24;2.90;;;0.82;;
66521;SDS011;53349;53.538;8.584;2022-11-20T06:43:50;2.90;;;0.90;;
66521;SDS011;53349;53.538;8.584;2022-11-20T06:46:17;5.45;;;1.20;;
66521;SDS011;53349;53.538;8.584;2022-11-20T06:48:44;4.35;;;1.30;;
66521;SDS011;53349;53.538;8.584;2022-11-20T06:51:11;5.47;;;1.27;;
66521;SDS011;53349;53.538;8.584;2022-11-20T06:53:37;3.93;;;1.50;;
66521;SDS011;53349;53.538;8.584;2022-11-20T06:56:03;3.88;;;1.45;;
66521;SDS011;53349;53.538;8.584;2022-11-20T06:58:30;4.68;;;1.50;;
66521;SDS011;53349;53.538;8.584;2022-11-20T07:01:00;5.03;;;1.57;;
66521;SDS011;53349;53.538;8.584;2022-11-20T07:03:26;3.55;;;1.50;;
66521;SDS011;53349;53.538;8.584;2022-11-20T07:05:54;6.03;;;1.77;;
66521;SDS011;53349;53.538;8.584;2022-11-20T07:08:20;4.68;;;1.70;;
66521;SDS011;53349;53.538;8.584;2022-11-20T07:10:45;4.90;;;1.87;;
66521;SDS011;53349;53.538;8.584;2022-11-20T07:13:11;4.17;;;1.87;;
66521;SDS011;53349;53.538;8.584;2022-11-20T07:15:36;5.30;;;2.00;;
66521;SDS011;53349;53.538;8.584;2022-11-20T07:18:01;4.53;;;2.00;;
66521;SDS011;53349;53.538;8.584;2022-11-20T07:20:27;5.07;;;2.20;;
66521;SDS011;53349;53.538;8.584;2022-11-20T07:22:53;5.40;;;2.15;;
66521;SDS011;53349;53.538;8.584;2022-11-20T07:25:23;7.38;;;3.00;;
66521;SDS011;53349;53.538;8.584;2022-11-20T07:27:52;6.77;;;2.97;;
66521;SDS011;53349;53.538;8.584;2022-11-20T07:30:18;7.22;;;3.05;;
66521;SDS011;53349;53.538;8.584;2022-11-20T07:32:47;6.47;;;2.97;;
66521;SDS011;53349;53.538;8.584;2022-11-20T07:35:16;6.15;;;2.83;;
66521;SDS011;53349;53.538;8.584;2022-11-20T07:37:41;5.63;;;2.50;;
66521;SDS011;53349;53.538;8.584;2022-11-20T07:40:07;5.50;;;2.33;;
66521;SDS011;53349;53.538;8.584;2022-11-20T07:42:33;5.77;;;2.60;;
66521;SDS011;53349;53.538;8.584;2022-11-20T07:44:58;7.30;;;2.40;;
66521;SDS011;53349;53.538;8.584;2022-11-20T07:47:23;4.55;;;2.17;;
66521;SDS011;53349;53.538;8.584;2022-11-20T07:49:48;6.33;;;1.60;;
66521;SDS011;53349;53.538;8.584;2022-11-20T07:52:14;4.17;;;1.37;;
66521;SDS011;53349;53.538;8.584;2022-11-20T07:54:39;4.23;;;1.50;;
66521;SDS011;53349;53.538;8.584;2022-11-20T07:57:04;4.53;;;1.27;;
66521;SDS011;53349;53.538;8.584;2022-11-20T07:59:30;3.70;;;1.33;;
66521;SDS011;53349;53.538;8.584;2022-11-20T08:01:55;4.00;;;1.13;;
66521;SDS011;53349;53.538;8.584;2022-11-20T08:04:20;3.07;;;1.17;;
66521;SDS011;53349;53.538;8.584;2022-11-20T08:06:46;3.65;;;1.30;;
66521;SDS011;53349;53.538;8.584;2022-11-20T08:09:12;3.40;;;1.00;;
66521;SDS011;53349;53.538;8.584;2022-11-20T08:11:40;3.50;;;1.20;;
66521;SDS011;53349;53.538;8.584;2022-11-20T08:14:24;4.38;;;1.20;;
66521;SDS011;53349;53.538;8.584;2022-11-20T08:16:50;3.27;;;1.37;;
66521;SDS011;53349;53.538;8.584;2022-11-20T08:19:17;3.17;;;1.10;;
66521;SDS011;53349;53.538;8.584;2022-11-20T08:21:43;4.35;;;1.10;;
66521;SDS011;53349;53.538;8.584;2022-11-20T08:24:09;3.90;;;1.45;;
66521;SDS011;53349;53.538;8.584;2022-11-20T08:26:35;5.35;;;1.98;;
66521;SDS011;53349;53.538;8.584;2022-11-20T08:29:02;2.97;;;1.37;;
66521;SDS011;53349;53.538;8.584;2022-11-20T08:31:28;3.75;;;1.38;;
66521;SDS011;53349;53.538;8.584;2022-11-20T08:33:54;3.55;;;1.48;;
66521;SDS011;53349;53.538;8.584;2022-11-20T08:36:20;3.22;;;1.38;;
66521;SDS011;53349;53.538;8.584;2022-11-20T08:38:53;4.90;;;1.43;;
66521;SDS011;53349;53.538;8.584;2022-11-20T08:41:20;5.60;;;2.22;;
66521;SDS011;53349;53.538;8.584;2022-11-20T08:43:51;4.28;;;1.40;;
66521;SDS011;53349;53.538;8.584;2022-11-20T08:46:24;3.83;;;1.42;;
66521;SDS011;53349;53.538;8.584;2022-11-20T08:48:51;3.25;;;1.35;;
66521;SDS011;53349;53.538;8.584;2022-11-20T08:51:17;3.67;;;1.70;;
66521;SDS011;53349;53.538;8.584;2022-11-20T08:53:43;3.85;;;1.23;;
66521;SDS011;53349;53.538;8.584;2022-11-20T08:56:08;3.90;;;1.77;;
66521;SDS011;53349;53.538;8.584;2022-11-20T08:58:37;3.97;;;1.50;;
66521;SDS011;53349;53.538;8.584;2022-11-20T09:01:03;3.10;;;1.02;;
66521;SDS011;53349;53.538;8.584;2022-11-20T09:03:29;3.10;;;1.20;;
66521;SDS011;53349;53.538;8.584;2022-11-20T09:06:02;3.83;;;1.20;;
66521;SDS011;53349;53.538;8.584;2022-11-20T09:08:29;3.30;;;1.00;;
66521;SDS011;53349;53.538;8.584;2022-11-20T09:10:55;2.63;;;0.95;;
66521;SDS011;53349;53.538;8.584;2022-11-20T09:13:22;3.47;;;1.25;;
66521;SDS011;53349;53.538;8.584;2022-11-20T09:15:54;3.67;;;1.20;;
66521;SDS011;53349;53.538;8.584;2022-11-20T09:18:27;4.43;;;1.00;;
66521;SDS011;53349;53.538;8.584;2022-11-20T09:20:57;3.88;;;0.90;;
66521;SDS011;53349;53.538;8.584;2022-11-20T09:23:26;3.05;;;1.00;;
66521;SDS011;53349;53.538;8.584;2022-11-20T09:25:55;3.42;;;0.90;;
66521;SDS011;53349;53.538;8.584;2022-11-20T09:28:24;5.05;;;1.50;;
66521;SDS011;53349;53.538;8.584;2022-11-20T09:30:50;4.67;;;1.43;;
66521;SDS011;53349;53.538;8.584;2022-11-20T09:33:16;3.40;;;1.30;;
66521;SDS011;53349;53.538;8.584;2022-11-20T09:35:42;3.97;;;1.40;;
66521;SDS011;53349;53.538;8.584;2022-11-20T09:38:08;3.75;;;1.17;;
66521;SDS011;53349;53.538;8.584;2022-11-20T09:40:36;4.43;;;1.08;;
66521;SDS011;53349;53.538;8.584;2022-11-20T09:53:52;4.95;;;1.60;;
66521;SDS011;53349;53.538;8.584;2022-11-20T09:56:21;3.63;;;1.33;;
66521;SDS011;53349;53.538;8.584;2022-11-20T09:58:51;3.03;;;1.20;;
66521;SDS011;53349;53.538;8.584;2022-11-20T10:01:20;3.92;;;1.30;;
66521;SDS011;53349;53.538;8.584;2022-11-20T10:04:04;5.03;;;1.10;;
66521;SDS011;53349;53.538;8.584;2022-11-20T10:06:37;3.78;;;1.05;;
66521;SDS011;53349;53.538;8.584;2022-11-20T10:11:56;6.20;;;2.37;;
66521;SDS011;53349;53.538;8.584;2022-11-20T10:23:04;4.53;;;1.63;;
66521;SDS011;53349;53.538;8.584;2022-11-20T10:28:27;3.40;;;1.27;;
66521;SDS011;53349;53.538;8.584;2022-11-20T10:31:37;3.45;;;1.20;;
66521;SDS011;53349;53.538;8.584;2022-11-20T10:34:26;2.30;;;0.88;;
66521;SDS011;53349;53.538;8.584;2022-11-20T10:37:00;2.53;;;1.10;;
66521;SDS011;53349;53.538;8.584;2022-11-20T10:39:39;4.07;;;1.10;;
66521;SDS011;53349;53.538;8.584;2022-11-20T10:42:13;3.22;;;1.13;;
66521;SDS011;53349;53.538;8.584;2022-11-20T10:44:46;4.07;;;1.35;;
66521;SDS011;53349;53.538;8.584;2022-11-20T10:47:26;4.60;;;1.48;;
66521;SDS011;53349;53.538;8.584;2022-11-20T10:49:53;3.03;;;1.30;;
66521;SDS011;53349;53.538;8.584;2022-11-20T10:58:14;3.55;;;1.33;;
66521;SDS011;53349;53.538;8.584;2022-11-20T11:00:45;2.85;;;1.20;;
66521;SDS011;53349;53.538;8.584;2022-11-20T11:03:19;3.07;;;0.97;;
66521;SDS011;53349;53.538;8.584;2022-11-20T11:05:50;2.63;;;1.10;;
66521;SDS011;53349;53.538;8.584;2022-11-20T11:08:21;2.25;;;0.85;;
66521;SDS011;53349;53.538;8.584;2022-11-20T11:10:51;3.28;;;1.08;;
66521;SDS011;53349;53.538;8.584;2022-11-20T11:13:20;3.40;;;1.10;;
66521;SDS011;53349;53.538;8.584;2022-11-20T11:15:49;2.93;;;0.90;;
66521;SDS011;53349;53.538;8.584;2022-11-20T11:18:33;3.10;;;1.17;;
66521;SDS011;53349;53.538;8.584;2022-11-20T11:21:00;3.47;;;0.80;;
66521;SDS011;53349;53.538;8.584;2022-11-20T11:23:37;3.38;;;1.10;;
66521;SDS011;53349;53.538;8.584;2022-11-20T11:26:17;3.63;;;1.20;;
66521;SDS011;53349;53.538;8.584;2022-11-20T11:28:57;3.50;;;1.17;;
66521;SDS011;53349;53.538;8.584;2022-11-20T11:31:24;2.58;;;0.90;;
66521;SDS011;53349;53.538;8.584;2022-11-20T11:34:04;2.17;;;0.80;;
66521;SDS011;53349;53.538;8.584;2022-11-20T11:36:37;3.25;;;1.20;;
66521;SDS011;53349;53.538;8.584;2022-11-20T11:39:03;3.43;;;1.30;;
66521;SDS011;53349;53.538;8.584;2022-11-20T11:41:33;4.18;;;1.38;;
66521;SDS011;53349;53.538;8.584;2022-11-20T11:44:12;3.65;;;1.58;;
66521;SDS011;53349;53.538;8.584;2022-11-20T11:47:01;3.03;;;1.33;;
66521;SDS011;53349;53.538;8.584;2022-11-20T11:49:29;3.90;;;1.27;;
66521;SDS011;53349;53.538;8.584;2022-11-20T11:52:02;4.80;;;1.30;;
66521;SDS011;53349;53.538;8.584;2022-11-20T11:59:53;4.18;;;1.50;;
66521;SDS011;53349;53.538;8.584;2022-11-20T12:08:32;4.20;;;1.90;;
66521;SDS011;53349;53.538;8.584;2022-11-20T12:13:58;4.32;;;1.80;;
66521;SDS011;53349;53.538;8.584;2022-11-20T12:16:30;4.35;;;1.48;;
66521;SDS011;53349;53.538;8.584;2022-11-20T12:19:01;3.40;;;1.45;;
66521;SDS011;53349;53.538;8.584;2022-11-20T12:24:24;6.13;;;2.50;;
66521;SDS011;53349;53.538;8.584;2022-11-20T12:30:00;4.70;;;2.07;;
66521;SDS011;53349;53.538;8.584;2022-11-20T12:32:40;4.32;;;2.08;;
66521;SDS011;53349;53.538;8.584;2022-11-20T12:38:18;4.82;;;2.60;;
66521;SDS011;53349;53.538;8.584;2022-11-20T12:41:20;6.35;;;2.45;;
66521;SDS011;53349;53.538;8.584;2022-11-20T12:44:36;6.30;;;3.30;;
66521;SDS011;53349;53.538;8.584;2022-11-20T12:47:35;6.43;;;2.85;;
66521;SDS011;53349;53.538;8.584;2022-11-20T12:53:08;5.57;;;2.47;;
66521;SDS011;53349;53.538;8.584;2022-11-20T12:58:39;6.53;;;2.20;;
66521;SDS011;53349;53.538;8.584;2022-11-20T13:01:24;5.05;;;2.65;;
66521;SDS011;53349;53.538;8.584;2022-11-20T13:04:15;4.20;;;1.98;;
66521;SDS011;53349;53.538;8.584;2022-11-20T13:07:01;3.80;;;1.95;;
66521;SDS011;53349;53.538;8.584;2022-11-20T13:09:28;5.20;;;2.60;;
66521;SDS011;53349;53.538;8.584;2022-11-20T13:17:29;4.90;;;2.63;;
66521;SDS011;53349;53.538;8.584;2022-11-20T13:20:02;5.10;;;2.30;;
66521;SDS011;53349;53.538;8.584;2022-11-20T13:25:10;5.93;;;2.40;;
66521;SDS011;53349;53.538;8.584;2022-11-20T13:27:46;4.32;;;2.00;;
66521;SDS011;53349;53.538;8.584;2022-11-20T13:30:14;5.90;;;2.50;;
66521;SDS011;53349;53.538;8.584;2022-11-20T13:33:03;6.22;;;2.60;;
66521;SDS011;53349;53.538;8.584;2022-11-20T13:35:54;7.70;;;3.47;;
66521;SDS011;53349;53.538;8.584;2022-11-20T13:38:46;6.33;;;2.80;;
66521;SDS011;53349;53.538;8.584;2022-11-20T13:41:36;6.45;;;2.80;;
66521;SDS011;53349;53.538;8.584;2022-11-20T13:46:40;6.20;;;2.58;;
66521;SDS011;53349;53.538;8.584;2022-11-20T13:49:09;7.97;;;3.55;;
66521;SDS011;53349;53.538;8.584;2022-11-20T13:51:48;7.50;;;3.67;;
66521;SDS011;53349;53.538;8.584;2022-11-20T13:59:35;8.25;;;3.60;;
66521;SDS011;53349;53.538;8.584;2022-11-20T14:02:10;6.90;;;3.50;;
66521;SDS011;53349;53.538;8.584;2022-11-20T14:04:42;7.90;;;4.07;;
66521;SDS011;53349;53.538;8.584;2022-11-20T14:07:11;8.10;;;4.07;;
66521;SDS011;53349;53.538;8.584;2022-11-20T14:09:36;7.90;;;3.80;;
66521;SDS011;53349;53.538;8.584;2022-11-20T14:12:02;9.03;;;4.03;;
66521;SDS011;53349;53.538;8.584;2022-11-20T14:14:30;8.20;;;3.90;;
66521;SDS011;53349;53.538;8.584;2022-11-20T14:20:02;8.68;;;4.30;;
66521;SDS011;53349;53.538;8.584;2022-11-20T14:22:30;8.55;;;3.90;;
66521;SDS011;53349;53.538;8.584;2022-11-20T14:27:39;10.50;;;5.18;;
66521;SDS011;53349;53.538;8.584;2022-11-20T14:32:46;8.87;;;4.40;;
66521;SDS011;53349;53.538;8.584;2022-11-20T14:35:15;13.15;;;4.75;;
66521;SDS011;53349;53.538;8.584;2022-11-20T14:37:46;9.65;;;4.10;;
66521;SDS011;53349;53.538;8.584;2022-11-20T14:40:22;9.35;;;4.40;;
66521;SDS011;53349;53.538;8.584;2022-11-20T14:42:50;11.80;;;5.50;;
66521;SDS011;53349;53.538;8.584;2022-11-20T14:45:15;14.15;;;5.97;;
66521;SDS011;53349;53.538;8.584;2022-11-20T14:47:41;13.03;;;5.73;;
66521;SDS011;53349;53.538;8.584;2022-11-20T14:50:12;11.40;;;5.30;;
66521;SDS011;53349;53.538;8.584;2022-11-20T14:53:00;10.27;;;5.28;;
66521;SDS011;53349;53.538;8.584;2022-11-20T14:55:26;11.82;;;5.10;;
66521;SDS011;53349;53.538;8.584;2022-11-20T14:58:01;13.10;;;5.90;;
66521;SDS011;53349;53.538;8.584;2022-11-20T15:00:31;13.77;;;6.10;;
66521;SDS011;53349;53.538;8.584;2022-11-20T15:02:57;15.00;;;6.60;;
66521;SDS011;53349;53.538;8.584;2022-11-20T15:05:24;12.85;;;5.85;;
66521;SDS011;53349;53.538;8.584;2022-11-20T15:08:10;13.80;;;6.07;;
66521;SDS011;53349;53.538;8.584;2022-11-20T15:10:35;12.23;;;6.10;;
66521;SDS011;53349;53.538;8.584;2022-11-20T15:13:05;13.82;;;6.22;;
66521;SDS011;53349;53.538;8.584;2022-11-20T15:15:50;13.45;;;5.82;;
66521;SDS011;53349;53.538;8.584;2022-11-20T15:18:18;12.37;;;6.07;;
66521;SDS011;53349;53.538;8.584;2022-11-20T15:20:45;14.30;;;6.78;;
66521;SDS011;53349;53.538;8.584;2022-11-20T15:23:12;11.38;;;5.80;;
66521;SDS011;53349;53.538;8.584;2022-11-20T15:25:40;13.67;;;6.20;;
66521;SDS011;53349;53.538;8.584;2022-11-20T15:28:16;11.63;;;5.57;;
66521;SDS011;53349;53.538;8.584;2022-11-20T15:30:45;12.80;;;5.90;;
66521;SDS011;53349;53.538;8.584;2022-11-20T15:33:11;13.15;;;6.45;;
66521;SDS011;53349;53.538;8.584;2022-11-20T15:35:37;13.20;;;6.47;;
66521;SDS011;53349;53.538;8.584;2022-11-20T15:38:03;15.40;;;7.27;;
66521;SDS011;53349;53.538;8.584;2022-11-20T15:40:28;14.80;;;6.90;;
66521;SDS011;53349;53.538;8.584;2022-11-20T15:42:53;12.50;;;5.90;;
66521;SDS011;53349;53.538;8.584;2022-11-20T15:45:28;12.65;;;5.85;;
66521;SDS011;53349;53.538;8.584;2022-11-20T15:47:58;13.35;;;6.15;;
66521;SDS011;53349;53.538;8.584;2022-11-20T15:50:25;12.63;;;5.90;;
66521;SDS011;53349;53.538;8.584;2022-11-20T15:52:54;11.50;;;5.57;;
66521;SDS011;53349;53.538;8.584;2022-11-20T15:55:20;11.90;;;5.93;;
66521;SDS011;53349;53.538;8.584;2022-11-20T15:57:45;13.20;;;6.18;;
66521;SDS011;53349;53.538;8.584;2022-11-20T16:00:11;16.40;;;7.63;;
66521;SDS011;53349;53.538;8.584;2022-11-20T16:02:37;17.80;;;7.53;;
66521;SDS011;53349;53.538;8.584;2022-11-20T16:05:02;14.48;;;6.50;;
66521;SDS011;53349;53.538;8.584;2022-11-20T16:07:28;19.02;;;6.95;;
66521;SDS011;53349;53.538;8.584;2022-11-20T16:09:53;19.87;;;8.30;;
66521;SDS011;53349;53.538;8.584;2022-11-20T16:12:20;17.30;;;7.30;;
66521;SDS011;53349;53.538;8.584;2022-11-20T16:15:04;15.30;;;6.32;;
66521;SDS011;53349;53.538;8.584;2022-11-20T16:17:48;14.47;;;6.60;;
66521;SDS011;53349;53.538;8.584;2022-11-20T16:20:13;14.32;;;6.68;;
66521;SDS011;53349;53.538;8.584;2022-11-20T16:22:39;15.60;;;7.22;;
66521;SDS011;53349;53.538;8.584;2022-11-20T16:25:04;18.27;;;7.27;;